createdAt,value
2023-04-15T00:00:11.701Z,12.62
2023-04-15T00:01:13.811Z,12.62
2023-04-15T00:02:15.736Z,12.62
2023-04-15T00:03:17.781Z,12.63
2023-04-15T00:04:19.734Z,12.61
2023-04-15T00:05:21.479Z,12.59
2023-04-15T00:06:23.302Z,12.59
2023-04-15T00:07:25.130Z,12.59
2023-04-15T00:08:26.929Z,12.59
2023-04-15T00:09:28.739Z,12.62
2023-04-15T00:10:30.534Z,12.63
2023-04-15T00:11:32.354Z,12.65
2023-04-15T00:12:34.196Z,12.66
2023-04-15T00:13:36.049Z,12.67
2023-04-15T00:14:37.801Z,12.68
2023-04-15T00:15:39.601Z,12.70
2023-04-15T00:16:41.485Z,12.72
2023-04-15T00:17:43.398Z,12.71
2023-04-15T00:18:45.077Z,12.73
2023-04-15T00:19:46.869Z,12.73
2023-04-15T00:20:48.677Z,12.73
2023-04-15T00:21:50.496Z,12.74
2023-04-15T00:22:52.338Z,12.73
2023-04-15T00:23:54.142Z,12.71
2023-04-15T00:24:55.965Z,12.71
2023-04-15T00:25:57.753Z,12.69
2023-04-15T00:26:59.580Z,12.67
2023-04-15T00:28:01.510Z,12.68
2023-04-15T00:29:03.329Z,12.67
2023-04-15T00:30:05.223Z,12.64
2023-04-15T00:31:07.078Z,12.60
2023-04-15T00:32:08.948Z,12.59
2023-04-15T00:33:10.819Z,12.58
2023-04-15T00:34:12.592Z,12.58
2023-04-15T00:35:14.408Z,12.57
2023-04-15T00:36:16.219Z,12.58
2023-04-15T00:37:18.013Z,12.62
2023-04-15T00:38:19.856Z,12.62
2023-04-15T00:39:21.661Z,12.59
2023-04-15T00:40:23.479Z,12.57
2023-04-15T00:41:25.300Z,12.55
2023-04-15T00:42:27.095Z,12.54
2023-04-15T00:43:28.928Z,12.53
2023-04-15T00:44:30.738Z,12.52
2023-04-15T00:45:32.567Z,12.55
2023-04-15T00:46:34.365Z,12.55
2023-04-15T00:47:36.244Z,12.55
2023-04-15T00:48:38.029Z,12.52
2023-04-15T00:49:39.844Z,12.48
2023-04-15T00:50:41.644Z,12.47
2023-04-15T00:51:43.462Z,12.43
2023-04-15T00:52:45.263Z,12.39
2023-04-15T00:53:47.068Z,12.39
2023-04-15T00:54:48.769Z,12.42
2023-04-15T00:55:50.579Z,12.44
2023-04-15T00:56:52.388Z,12.44
2023-04-15T00:57:54.210Z,12.45
2023-04-15T00:58:55.945Z,12.46
2023-04-15T00:59:57.738Z,12.44
2023-04-15T01:00:59.544Z,12.43
2023-04-15T01:02:01.453Z,12.39
2023-04-15T01:03:03.367Z,12.35
2023-04-15T01:04:05.480Z,12.34
2023-04-15T01:05:07.442Z,12.35
2023-04-15T01:06:09.868Z,12.35
2023-04-15T01:07:11.670Z,12.36
2023-04-15T01:08:13.457Z,12.37
2023-04-15T01:09:15.300Z,12.38
2023-04-15T01:10:17.097Z,12.38
2023-04-15T01:11:18.906Z,12.38
2023-04-15T01:12:20.766Z,12.36
2023-04-15T01:13:22.526Z,12.36
2023-04-15T01:14:24.356Z,12.34
2023-04-15T01:15:26.150Z,12.34
2023-04-15T01:16:28.071Z,12.32
2023-04-15T01:17:30.048Z,12.28
2023-04-15T01:18:31.859Z,12.25
2023-04-15T01:19:33.813Z,12.23
2023-04-15T01:20:35.622Z,12.20
2023-04-15T01:21:37.523Z,12.13
2023-04-15T01:22:39.379Z,12.09
2023-04-15T01:23:41.248Z,12.08
2023-04-15T01:24:43.118Z,12.09
2023-04-15T01:25:44.916Z,12.08
2023-04-15T01:26:46.724Z,12.08
2023-04-15T01:27:48.542Z,12.02
2023-04-15T01:28:50.344Z,12.00
2023-04-15T01:29:52.201Z,11.99
2023-04-15T01:30:54.021Z,12.01
2023-04-15T01:31:56.021Z,11.98
2023-04-15T01:32:57.982Z,11.98
2023-04-15T01:33:59.750Z,11.96
2023-04-15T01:35:01.605Z,11.95
2023-04-15T01:36:03.494Z,11.95
2023-04-15T01:37:05.302Z,11.96
2023-04-15T01:38:07.099Z,11.97
2023-04-15T01:39:08.904Z,11.96
2023-04-15T01:40:10.846Z,11.94
2023-04-15T01:41:12.658Z,11.93
2023-04-15T01:42:14.458Z,11.87
2023-04-15T01:43:16.264Z,11.80
2023-04-15T01:44:18.060Z,11.79
2023-04-15T01:45:19.921Z,11.78
2023-04-15T01:46:21.753Z,11.76
2023-04-15T01:47:23.584Z,11.77
2023-04-15T01:48:25.442Z,11.77
2023-04-15T01:49:27.352Z,11.78
2023-04-15T01:50:29.199Z,11.77
2023-04-15T01:51:30.910Z,11.76
2023-04-15T01:52:32.706Z,11.77
2023-04-15T01:53:34.502Z,11.78
2023-04-15T01:54:36.315Z,11.76
2023-04-15T01:55:38.272Z,11.75
2023-04-15T01:56:40.079Z,11.75
2023-04-15T01:57:41.864Z,11.74
2023-04-15T01:58:43.783Z,11.72
2023-04-15T01:59:45.595Z,11.73
2023-04-15T02:00:47.480Z,11.77
2023-04-15T02:01:49.260Z,11.77
2023-04-15T02:02:51.257Z,11.79
2023-04-15T02:03:53.138Z,11.80
2023-04-15T02:04:54.978Z,11.81
2023-04-15T02:05:56.833Z,11.82
2023-04-15T02:06:58.653Z,11.85
2023-04-15T02:08:00.448Z,11.87
2023-04-15T02:09:02.454Z,11.84
2023-04-15T02:10:04.350Z,11.79
2023-04-15T02:11:06.200Z,11.75
2023-04-15T02:12:08.007Z,11.72
2023-04-15T02:13:09.905Z,11.72
2023-04-15T02:14:11.709Z,11.72
2023-04-15T02:15:13.511Z,11.73
2023-04-15T02:16:15.402Z,11.72
2023-04-15T02:17:17.190Z,11.72
2023-04-15T02:18:18.984Z,11.73
2023-04-15T02:19:20.787Z,11.74
2023-04-15T02:20:22.685Z,11.78
2023-04-15T02:21:24.547Z,11.77
2023-04-15T02:22:26.346Z,11.78
2023-04-15T02:23:28.158Z,11.79
2023-04-15T02:24:29.986Z,11.79
2023-04-15T02:25:31.808Z,11.80
2023-04-15T02:26:33.644Z,11.82
2023-04-15T02:27:35.435Z,11.85
2023-04-15T02:28:37.238Z,11.85
2023-04-15T02:29:39.049Z,11.85
2023-04-15T02:30:40.871Z,11.86
2023-04-15T02:31:42.736Z,11.86
2023-04-15T02:32:44.633Z,11.88
2023-04-15T02:33:46.434Z,11.87
2023-04-15T02:34:48.247Z,11.83
2023-04-15T02:35:50.052Z,11.81
2023-04-15T02:36:51.890Z,11.77
2023-04-15T02:37:53.713Z,11.74
2023-04-15T02:38:55.510Z,11.70
2023-04-15T02:39:57.318Z,11.68
2023-04-15T02:40:59.115Z,11.66
2023-04-15T02:42:00.951Z,11.64
2023-04-15T02:43:02.775Z,11.66
2023-04-15T02:44:04.572Z,11.66
2023-04-15T02:45:06.382Z,11.64
2023-04-15T02:46:08.391Z,11.64
2023-04-15T02:47:10.317Z,11.64
2023-04-15T02:48:12.123Z,11.65
2023-04-15T02:49:13.933Z,11.65
2023-04-15T02:50:16.593Z,11.61
2023-04-15T02:51:18.442Z,11.60
2023-04-15T02:52:20.587Z,11.59
2023-04-15T02:53:22.400Z,11.57
2023-04-15T02:54:24.285Z,11.56
2023-04-15T02:55:26.073Z,11.55
2023-04-15T02:56:27.901Z,11.53
2023-04-15T02:57:29.749Z,11.52
2023-04-15T02:58:31.542Z,11.54
2023-04-15T02:59:33.342Z,11.56
2023-04-15T03:00:35.144Z,11.56
2023-04-15T03:01:36.971Z,11.54
2023-04-15T03:02:38.974Z,11.52
2023-04-15T03:03:41.020Z,11.51
2023-04-15T03:04:42.911Z,11.52
2023-04-15T03:05:44.707Z,11.52
2023-04-15T03:06:46.510Z,11.54
2023-04-15T03:07:48.344Z,11.55
2023-04-15T03:08:50.049Z,11.56
2023-04-15T03:09:51.858Z,11.57
2023-04-15T03:10:53.683Z,11.56
2023-04-15T03:11:55.477Z,11.56
2023-04-15T03:12:57.297Z,11.55
2023-04-15T03:13:59.106Z,11.57
2023-04-15T03:15:00.809Z,11.57
2023-04-15T03:16:02.633Z,11.56
2023-04-15T03:17:04.406Z,11.55
2023-04-15T03:18:06.143Z,11.54
2023-04-15T03:19:07.944Z,11.50
2023-04-15T03:20:09.953Z,11.50
2023-04-15T03:21:11.774Z,11.48
2023-04-15T03:22:13.559Z,11.50
2023-04-15T03:23:15.404Z,11.51
2023-04-15T03:24:17.223Z,11.51
2023-04-15T03:25:19.042Z,11.50
2023-04-15T03:26:20.848Z,11.50
2023-04-15T03:27:22.653Z,11.48
2023-04-15T03:28:24.497Z,11.46
2023-04-15T03:29:26.211Z,11.45
2023-04-15T03:30:28.018Z,11.45
2023-04-15T03:31:29.852Z,11.45
2023-04-15T03:32:31.551Z,11.46
2023-04-15T03:33:33.353Z,11.48
2023-04-15T03:34:35.146Z,11.42
2023-04-15T03:35:36.951Z,11.40
2023-04-15T03:36:38.761Z,11.38
2023-04-15T03:37:40.562Z,11.37
2023-04-15T03:38:42.400Z,11.35
2023-04-15T03:39:44.100Z,11.37
2023-04-15T03:40:45.900Z,11.34
2023-04-15T03:41:47.706Z,11.36
2023-04-15T03:42:49.517Z,11.34
2023-04-15T03:43:51.251Z,11.31
2023-04-15T03:44:53.039Z,11.28
2023-04-15T03:45:54.846Z,11.26
2023-04-15T03:46:56.646Z,11.27
2023-04-15T03:48:11.281Z,11.27
2023-04-15T03:49:02.190Z,11.29
2023-04-15T03:50:04.251Z,11.34
2023-04-15T03:51:06.044Z,11.33
2023-04-15T03:52:07.850Z,11.33
2023-04-15T03:53:09.655Z,11.34
2023-04-15T03:54:11.489Z,11.35
2023-04-15T03:55:13.318Z,11.35
2023-04-15T03:56:15.084Z,11.33
2023-04-15T03:57:16.881Z,11.33
2023-04-15T03:58:18.693Z,11.37
2023-04-15T03:59:20.552Z,11.38
2023-04-15T04:00:22.347Z,11.39
2023-04-15T04:01:24.139Z,11.42
2023-04-15T04:02:26.077Z,11.40
2023-04-15T04:03:28.270Z,11.35
2023-04-15T04:04:30.434Z,11.33
2023-04-15T04:05:32.335Z,11.32
2023-04-15T04:06:34.101Z,11.27
2023-04-15T04:07:35.931Z,11.22
2023-04-15T04:08:37.742Z,11.17
2023-04-15T04:09:39.473Z,11.15
2023-04-15T04:10:41.314Z,11.13
2023-04-15T04:11:43.093Z,11.12
2023-04-15T04:12:44.885Z,11.12
2023-04-15T04:13:46.790Z,11.12
2023-04-15T04:14:48.638Z,11.09
2023-04-15T04:15:50.489Z,11.07
2023-04-15T04:16:52.456Z,11.08
2023-04-15T04:17:54.280Z,11.07
2023-04-15T04:18:56.039Z,11.08
2023-04-15T04:19:57.983Z,11.08
2023-04-15T04:20:59.797Z,11.08
2023-04-15T04:22:01.608Z,11.11
2023-04-15T04:23:03.422Z,11.11
2023-04-15T04:24:05.225Z,11.12
2023-04-15T04:25:07.051Z,11.10
2023-04-15T04:26:09.077Z,11.07
2023-04-15T04:27:10.891Z,11.07
2023-04-15T04:28:12.672Z,11.02
2023-04-15T04:29:14.472Z,11.00
2023-04-15T04:30:16.354Z,11.01
2023-04-15T04:31:18.146Z,10.99
2023-04-15T04:32:19.975Z,10.97
2023-04-15T04:33:21.739Z,10.92
2023-04-15T04:34:23.453Z,10.90
2023-04-15T04:35:25.307Z,10.92
2023-04-15T04:36:27.123Z,10.93
2023-04-15T04:37:28.932Z,10.91
2023-04-15T04:38:30.728Z,10.93
2023-04-15T04:39:32.523Z,10.94
2023-04-15T04:40:34.466Z,10.95
2023-04-15T04:41:36.278Z,10.98
2023-04-15T04:42:39.868Z,11.00
2023-04-15T04:43:41.710Z,11.03
2023-04-15T04:44:43.625Z,11.05
2023-04-15T04:45:45.488Z,11.05
2023-04-15T04:46:47.289Z,11.10
2023-04-15T04:47:49.105Z,11.11
2023-04-15T04:48:50.886Z,11.13
2023-04-15T04:49:52.703Z,11.14
2023-04-15T04:50:54.572Z,11.12
2023-04-15T04:51:56.381Z,11.12
2023-04-15T04:52:58.175Z,11.13
2023-04-15T04:54:01.273Z,11.17
2023-04-15T04:55:03.481Z,11.20
2023-04-15T04:56:05.341Z,11.23
2023-04-15T04:57:07.138Z,11.24
2023-04-15T04:58:08.848Z,11.23
2023-04-15T04:59:10.639Z,11.20
2023-04-15T05:00:12.857Z,11.15
2023-04-15T05:01:14.749Z,11.12
2023-04-15T05:02:16.904Z,11.12
2023-04-15T05:03:19.107Z,11.11
2023-04-15T05:04:21.252Z,11.10
2023-04-15T05:05:23.061Z,11.08
2023-04-15T05:06:24.909Z,11.09
2023-04-15T05:07:26.703Z,11.12
2023-04-15T05:08:28.512Z,11.15
2023-04-15T05:09:30.304Z,11.18
2023-04-15T05:10:32.134Z,11.20
2023-04-15T05:11:33.982Z,11.23
2023-04-15T05:12:35.764Z,11.25
2023-04-15T05:13:37.566Z,11.22
2023-04-15T05:14:39.370Z,11.24
2023-04-15T05:15:41.211Z,11.24
2023-04-15T05:16:43.044Z,11.25
2023-04-15T05:17:44.918Z,11.27
2023-04-15T05:18:46.760Z,11.30
2023-04-15T05:19:48.626Z,11.32
2023-04-15T05:20:50.387Z,11.34
2023-04-15T05:21:52.232Z,11.37
2023-04-15T05:22:54.083Z,11.38
2023-04-15T05:23:55.852Z,11.41
2023-04-15T05:24:57.672Z,11.40
2023-04-15T05:25:59.483Z,11.42
2023-04-15T05:27:01.315Z,11.44
2023-04-15T05:28:03.108Z,11.45
2023-04-15T05:29:04.907Z,11.49
2023-04-15T05:30:06.832Z,11.50
2023-04-15T05:31:08.757Z,11.56
2023-04-15T05:32:10.594Z,11.61
2023-04-15T05:33:12.398Z,11.64
2023-04-15T05:34:14.201Z,11.64
2023-04-15T05:35:16.042Z,11.65
2023-04-15T05:36:17.825Z,11.67
2023-04-15T05:37:19.666Z,11.66
2023-04-15T05:38:21.462Z,11.65
2023-04-15T05:39:23.282Z,11.69
2023-04-15T05:40:25.086Z,11.73
2023-04-15T05:41:26.778Z,11.76
2023-04-15T05:42:28.621Z,11.79
2023-04-15T05:43:30.447Z,11.80
2023-04-15T05:44:32.238Z,11.80
2023-04-15T05:45:34.060Z,11.81
2023-04-15T05:46:35.962Z,11.81
2023-04-15T05:47:37.909Z,11.77
2023-04-15T05:48:39.730Z,11.75
2023-04-15T05:49:41.551Z,11.76
2023-04-15T05:50:43.368Z,11.76
2023-04-15T05:51:45.181Z,11.79
2023-04-15T05:52:47.023Z,11.81
2023-04-15T05:53:48.841Z,11.81
2023-04-15T05:54:50.658Z,11.83
2023-04-15T05:55:52.454Z,11.85
2023-04-15T05:56:54.301Z,11.86
2023-04-15T05:57:56.105Z,11.85
2023-04-15T05:58:57.925Z,11.85
2023-04-15T05:59:59.738Z,11.88
2023-04-15T06:01:01.542Z,11.90
2023-04-15T06:02:03.347Z,11.94
2023-04-15T06:03:05.216Z,11.97
2023-04-15T06:04:07.157Z,11.98
2023-04-15T06:05:09.121Z,12.00
2023-04-15T06:06:11.205Z,12.00
2023-04-15T06:07:13.018Z,11.98
2023-04-15T06:08:14.861Z,11.96
2023-04-15T06:09:16.672Z,11.96
2023-04-15T06:10:18.469Z,11.97
2023-04-15T06:11:20.280Z,11.96
2023-04-15T06:12:22.091Z,11.94
2023-04-15T06:13:23.924Z,11.93
2023-04-15T06:14:25.728Z,11.95
2023-04-15T06:15:27.535Z,11.98
2023-04-15T06:16:29.404Z,12.00
2023-04-15T06:17:31.190Z,12.02
2023-04-15T06:18:33.105Z,12.04
2023-04-15T06:19:34.974Z,12.08
2023-04-15T06:20:36.871Z,12.09
2023-04-15T06:21:38.666Z,12.12
2023-04-15T06:22:40.473Z,12.13
2023-04-15T06:23:42.314Z,12.13
2023-04-15T06:24:44.126Z,12.14
2023-04-15T06:25:45.945Z,12.17
2023-04-15T06:26:47.735Z,12.17
2023-04-15T06:27:49.534Z,12.18
2023-04-15T06:28:51.396Z,12.20
2023-04-15T06:29:53.201Z,12.21
2023-04-15T06:30:55.010Z,12.24
2023-04-15T06:31:56.886Z,12.25
2023-04-15T06:32:58.800Z,12.25
2023-04-15T06:34:00.666Z,12.26
2023-04-15T06:35:03.591Z,12.28
2023-04-15T06:36:05.379Z,12.29
2023-04-15T06:37:07.190Z,12.33
2023-04-15T06:38:09.003Z,12.35
2023-04-15T06:39:10.835Z,12.37
2023-04-15T06:40:13.076Z,12.40
2023-04-15T06:41:14.871Z,12.42
2023-04-15T06:42:16.680Z,12.47
2023-04-15T06:43:18.476Z,12.52
2023-04-15T06:44:20.305Z,12.52
2023-04-15T06:45:22.116Z,12.54
2023-04-15T06:46:24.033Z,12.55
2023-04-15T06:47:25.864Z,12.55
2023-04-15T06:48:27.741Z,12.56
2023-04-15T06:49:29.498Z,12.60
2023-04-15T06:50:31.307Z,12.63
2023-04-15T06:51:33.106Z,12.65
2023-04-15T06:52:34.908Z,12.67
2023-04-15T06:53:36.710Z,12.70
2023-04-15T06:54:38.563Z,12.72
2023-04-15T06:55:40.376Z,12.71
2023-04-15T06:56:42.194Z,12.71
2023-04-15T06:57:44.008Z,12.70
2023-04-15T06:58:45.845Z,12.68
2023-04-15T06:59:48.502Z,12.66
2023-04-15T07:00:50.325Z,12.66
2023-04-15T07:01:52.152Z,12.65
2023-04-15T07:02:53.930Z,12.62
2023-04-15T07:03:55.759Z,12.62
2023-04-15T07:04:57.478Z,12.61
2023-04-15T07:05:59.288Z,12.61
2023-04-15T07:07:01.321Z,12.60
2023-04-15T07:08:03.146Z,12.60
2023-04-15T07:09:05.321Z,12.62
2023-04-15T07:10:07.545Z,12.65
2023-04-15T07:11:09.364Z,12.68
2023-04-15T07:12:11.172Z,12.69
2023-04-15T07:13:12.966Z,12.70
2023-04-15T07:14:14.778Z,12.71
2023-04-15T07:15:16.633Z,12.70
2023-04-15T07:16:18.513Z,12.72
2023-04-15T07:17:20.406Z,12.72
2023-04-15T07:18:22.251Z,12.73
2023-04-15T07:19:23.966Z,12.73
2023-04-15T07:20:25.873Z,12.72
2023-04-15T07:21:27.642Z,12.69
2023-04-15T07:22:29.505Z,12.70
2023-04-15T07:23:31.327Z,12.71
2023-04-15T07:24:33.137Z,12.74
2023-04-15T07:25:34.968Z,12.74
2023-04-15T07:26:36.773Z,12.73
2023-04-15T07:27:38.593Z,12.75
2023-04-15T07:28:40.408Z,12.72
2023-04-15T07:29:42.217Z,12.71
2023-04-15T07:30:44.274Z,12.70
2023-04-15T07:31:46.060Z,12.70
2023-04-15T07:32:47.899Z,12.73
2023-04-15T07:33:49.678Z,12.72
2023-04-15T07:34:51.481Z,12.70
2023-04-15T07:35:53.322Z,12.69
2023-04-15T07:36:55.128Z,12.69
2023-04-15T07:37:56.933Z,12.73
2023-04-15T07:38:58.781Z,12.74
2023-04-15T07:40:00.574Z,12.73
2023-04-15T07:41:02.402Z,12.73
2023-04-15T07:42:04.217Z,12.73
2023-04-15T07:43:05.916Z,12.74
2023-04-15T07:44:07.722Z,12.75
2023-04-15T07:45:09.529Z,12.72
2023-04-15T07:46:11.382Z,12.71
2023-04-15T07:47:13.275Z,12.70
2023-04-15T07:48:15.077Z,12.70
2023-04-15T07:49:16.896Z,12.72
2023-04-15T07:50:18.685Z,12.73
2023-04-15T07:51:20.525Z,12.75
2023-04-15T07:52:22.341Z,12.74
2023-04-15T07:53:24.162Z,12.75
2023-04-15T07:54:25.996Z,12.76
2023-04-15T07:55:28.362Z,12.74
2023-04-15T07:56:30.230Z,12.72
2023-04-15T07:57:32.017Z,12.71
2023-04-15T07:58:33.834Z,12.72
2023-04-15T07:59:35.670Z,12.74
2023-04-15T08:00:37.490Z,12.77
2023-04-15T08:01:39.346Z,12.77
2023-04-15T08:02:41.327Z,12.77
2023-04-15T08:03:43.423Z,12.74
2023-04-15T08:04:45.448Z,12.73
2023-04-15T08:05:47.323Z,12.73
2023-04-15T08:06:49.138Z,12.73
2023-04-15T08:07:50.967Z,12.76
2023-04-15T08:08:52.773Z,12.76
2023-04-15T08:09:54.595Z,12.80
2023-04-15T08:10:56.502Z,12.80
2023-04-15T08:11:58.335Z,12.79
2023-04-15T08:13:00.156Z,12.80
2023-04-15T08:14:02.016Z,12.81
2023-04-15T08:15:03.855Z,12.82
2023-04-15T08:16:06.198Z,12.82
2023-04-15T08:17:08.006Z,12.82
2023-04-15T08:18:09.698Z,12.84
2023-04-15T08:19:11.515Z,12.82
2023-04-15T08:20:13.420Z,12.82
2023-04-15T08:21:15.233Z,12.84
2023-04-15T08:22:18.013Z,12.87
2023-04-15T08:23:20.713Z,12.87
2023-04-15T08:24:22.526Z,12.88
2023-04-15T08:25:24.369Z,12.87
2023-04-15T08:26:26.162Z,12.87
2023-04-15T08:27:28.001Z,12.87
2023-04-15T08:28:29.826Z,12.89
2023-04-15T08:29:31.704Z,12.89
2023-04-15T08:30:33.528Z,12.88
2023-04-15T08:31:35.367Z,12.92
2023-04-15T08:32:37.476Z,12.93
2023-04-15T08:33:39.272Z,12.93
2023-04-15T08:34:41.079Z,12.97
2023-04-15T08:35:43.922Z,12.98
2023-04-15T08:36:45.720Z,12.96
2023-04-15T08:37:47.579Z,12.95
2023-04-15T08:38:49.419Z,12.92
2023-04-15T08:39:51.202Z,12.92
2023-04-15T08:40:53.000Z,12.90
2023-04-15T08:41:54.892Z,12.91
2023-04-15T08:42:56.656Z,12.92
2023-04-15T08:43:58.358Z,12.94
2023-04-15T08:45:00.159Z,12.96
2023-04-15T08:46:01.956Z,12.97
2023-04-15T08:47:03.864Z,13.01
2023-04-15T08:48:05.846Z,13.03
2023-04-15T08:49:07.611Z,13.08
2023-04-15T08:50:09.515Z,13.10
2023-04-15T08:51:11.329Z,13.12
2023-04-15T08:52:13.147Z,13.14
2023-04-15T08:53:15.000Z,13.11
2023-04-15T08:54:16.792Z,13.09
2023-04-15T08:55:18.601Z,13.10
2023-04-15T08:56:20.473Z,13.10
2023-04-15T08:57:22.322Z,13.09
2023-04-15T08:58:24.149Z,13.07
2023-04-15T08:59:25.954Z,13.09
2023-04-15T09:00:27.748Z,13.09
2023-04-15T09:01:29.689Z,13.10
2023-04-15T09:02:31.677Z,13.12
2023-04-15T09:03:33.683Z,13.12
2023-04-15T09:04:35.522Z,13.13
2023-04-15T09:05:37.340Z,13.16
2023-04-15T09:06:39.142Z,13.16
2023-04-15T09:07:40.838Z,13.14
2023-04-15T09:08:42.685Z,13.11
2023-04-15T09:09:44.488Z,13.11
2023-04-15T09:10:46.295Z,13.10
2023-04-15T09:11:48.091Z,13.10
2023-04-15T09:12:49.904Z,13.10
2023-04-15T09:13:51.747Z,13.12
2023-04-15T09:14:53.546Z,13.11
2023-04-15T09:15:55.344Z,13.10
2023-04-15T09:16:57.211Z,13.09
2023-04-15T09:17:58.967Z,13.07
2023-04-15T09:19:00.988Z,13.07
2023-04-15T09:20:02.895Z,13.08
2023-04-15T09:21:04.689Z,13.07
2023-04-15T09:22:06.501Z,13.06
2023-04-15T09:23:08.201Z,13.08
2023-04-15T09:24:10.030Z,13.09
2023-04-15T09:25:11.830Z,13.09
2023-04-15T09:26:13.851Z,13.09
2023-04-15T09:27:15.658Z,13.06
2023-04-15T09:28:17.560Z,13.03
2023-04-15T09:29:19.405Z,13.02
2023-04-15T09:30:21.214Z,13.01
2023-04-15T09:31:23.018Z,13.01
2023-04-15T09:32:24.782Z,13.02
2023-04-15T09:33:26.523Z,13.03
2023-04-15T09:34:28.360Z,13.02
2023-04-15T09:35:31.966Z,13.06
2023-04-15T09:36:33.760Z,13.07
2023-04-15T09:37:35.604Z,13.08
2023-04-15T09:38:37.378Z,13.07
2023-04-15T09:39:39.218Z,13.08
2023-04-15T09:40:41.008Z,13.10
2023-04-15T09:41:42.813Z,13.12
2023-04-15T09:42:44.515Z,13.15
2023-04-15T09:43:46.328Z,13.19
2023-04-15T09:44:48.178Z,13.20
2023-04-15T09:45:49.997Z,13.22
2023-04-15T09:46:51.773Z,13.22
2023-04-15T09:47:53.633Z,13.22
2023-04-15T09:48:55.485Z,13.23
2023-04-15T09:49:57.376Z,13.24
2023-04-15T09:50:59.208Z,13.24
2023-04-15T09:52:05.569Z,13.24
2023-04-15T09:53:04.623Z,13.25
2023-04-15T09:54:06.443Z,13.26
2023-04-15T09:55:08.291Z,13.25
2023-04-15T09:56:10.101Z,13.24
2023-04-15T09:57:11.914Z,13.23
2023-04-15T09:58:13.703Z,13.25
2023-04-15T09:59:15.521Z,13.24
2023-04-15T10:00:17.350Z,13.25
2023-04-15T10:01:19.159Z,13.24
2023-04-15T10:02:21.129Z,13.25
2023-04-15T10:03:23.283Z,13.25
2023-04-15T10:04:25.287Z,13.23
2023-04-15T10:05:27.122Z,13.19
2023-04-15T10:06:28.925Z,13.18
2023-04-15T10:07:30.733Z,13.15
2023-04-15T10:08:32.420Z,13.15
2023-04-15T10:09:34.223Z,13.12
2023-04-15T10:10:36.074Z,13.12
2023-04-15T10:11:37.923Z,13.12
2023-04-15T10:12:39.722Z,13.10
2023-04-15T10:13:41.523Z,13.10
2023-04-15T10:14:43.328Z,13.11
2023-04-15T10:15:45.220Z,13.10
2023-04-15T10:16:47.074Z,13.08
2023-04-15T10:17:49.070Z,13.09
2023-04-15T10:18:50.914Z,13.11
2023-04-15T10:19:52.702Z,13.12
2023-04-15T10:20:54.547Z,13.14
2023-04-15T10:21:56.352Z,13.15
2023-04-15T10:22:58.171Z,13.12
2023-04-15T10:24:00.328Z,13.10
2023-04-15T10:25:02.269Z,13.11
2023-04-15T10:26:04.053Z,13.12
2023-04-15T10:27:05.868Z,13.14
2023-04-15T10:28:07.690Z,13.17
2023-04-15T10:29:09.459Z,13.20
2023-04-15T10:30:11.274Z,13.21
2023-04-15T10:31:13.189Z,13.24
2023-04-15T10:32:14.915Z,13.23
2023-04-15T10:33:16.612Z,13.24
2023-04-15T10:34:18.410Z,13.24
2023-04-15T10:35:20.209Z,13.27
2023-04-15T10:36:22.054Z,13.30
2023-04-15T10:37:23.860Z,13.30
2023-04-15T10:38:25.669Z,13.32
2023-04-15T10:39:27.476Z,13.30
2023-04-15T10:40:29.288Z,13.30
2023-04-15T10:41:31.146Z,13.29
2023-04-15T10:42:33.085Z,13.32
2023-04-15T10:43:34.856Z,13.33
2023-04-15T10:44:36.649Z,13.33
2023-04-15T10:45:38.459Z,13.35
2023-04-15T10:46:40.414Z,13.36
2023-04-15T10:47:43.353Z,13.38
2023-04-15T10:48:45.231Z,13.39
2023-04-15T10:49:47.036Z,13.40
2023-04-15T10:50:48.830Z,13.41
2023-04-15T10:51:50.562Z,13.42
2023-04-15T10:52:52.355Z,13.40
2023-04-15T10:53:54.178Z,13.42
2023-04-15T10:54:55.960Z,13.41
2023-04-15T10:55:57.672Z,13.43
2023-04-15T10:56:59.506Z,13.44
2023-04-15T10:58:01.320Z,13.45
2023-04-15T10:59:03.116Z,13.49
2023-04-15T11:00:04.936Z,13.50
2023-04-15T11:01:06.735Z,13.52
2023-04-15T11:02:08.726Z,13.54
2023-04-15T11:03:11.028Z,13.55
2023-04-15T11:04:13.117Z,13.57
2023-04-15T11:05:14.982Z,13.59
2023-04-15T11:06:16.794Z,13.60
2023-04-15T11:07:18.628Z,13.61
2023-04-15T11:08:20.478Z,13.64
2023-04-15T11:09:22.297Z,13.66
2023-04-15T11:10:24.210Z,13.69
2023-04-15T11:11:26.022Z,13.69
2023-04-15T11:12:27.865Z,13.68
2023-04-15T11:13:29.679Z,13.70
2023-04-15T11:14:31.487Z,13.69
2023-04-15T11:15:33.306Z,13.70
2023-04-15T11:16:35.221Z,13.72
2023-04-15T11:17:37.153Z,13.72
2023-04-15T11:18:38.937Z,13.72
2023-04-15T11:19:40.784Z,13.72
2023-04-15T11:20:42.567Z,13.72
2023-04-15T11:21:44.258Z,13.71
2023-04-15T11:22:46.030Z,13.70
2023-04-15T11:23:47.840Z,13.72
2023-04-15T11:24:49.653Z,13.71
2023-04-15T11:25:51.464Z,13.71
2023-04-15T11:26:53.262Z,13.74
2023-04-15T11:27:55.188Z,13.75
2023-04-15T11:28:57.023Z,13.76
2023-04-15T11:29:58.713Z,13.76
2023-04-15T11:31:00.501Z,13.77
2023-04-15T11:32:02.266Z,13.76
2023-04-15T11:33:04.221Z,13.74
2023-04-15T11:34:06.105Z,13.71
2023-04-15T11:35:07.900Z,13.68
2023-04-15T11:36:10.013Z,13.67
2023-04-15T11:37:11.846Z,13.67
2023-04-15T11:38:13.771Z,13.67
2023-04-15T11:39:15.670Z,13.67
2023-04-15T11:40:17.461Z,13.65
2023-04-15T11:41:19.258Z,13.63
2023-04-15T11:42:21.075Z,13.64
2023-04-15T11:43:22.970Z,13.62
2023-04-15T11:44:24.749Z,13.62
2023-04-15T11:45:26.587Z,13.59
2023-04-15T11:46:28.385Z,13.60
2023-04-15T11:47:30.295Z,13.60
2023-04-15T11:48:32.116Z,13.61
2023-04-15T11:49:33.923Z,13.62
2023-04-15T11:50:35.731Z,13.64
2023-04-15T11:51:37.546Z,13.65
2023-04-15T11:52:39.368Z,13.65
2023-04-15T11:53:41.281Z,13.63
2023-04-15T11:54:43.147Z,13.61
2023-04-15T11:55:44.989Z,13.60
2023-04-15T11:56:46.922Z,13.61
2023-04-15T11:57:48.729Z,13.61
2023-04-15T11:58:50.859Z,13.62
2023-04-15T11:59:52.761Z,13.62
2023-04-15T12:00:54.595Z,13.63
2023-04-15T12:01:56.450Z,13.63
2023-04-15T12:02:58.398Z,13.65
2023-04-15T12:04:00.372Z,13.67
2023-04-15T12:05:02.404Z,13.68
2023-04-15T12:06:04.290Z,13.67
2023-04-15T12:07:06.111Z,13.68
2023-04-15T12:08:07.907Z,13.64
2023-04-15T12:09:09.743Z,13.61
2023-04-15T12:10:11.757Z,13.61
2023-04-15T12:11:13.567Z,13.62
2023-04-15T12:12:15.383Z,13.61
2023-04-15T12:13:17.180Z,13.62
2023-04-15T12:14:18.913Z,13.62
2023-04-15T12:15:20.731Z,13.60
2023-04-15T12:16:22.542Z,13.60
2023-04-15T12:17:24.410Z,13.61
2023-04-15T12:18:26.167Z,13.62
2023-04-15T12:19:28.010Z,13.64
2023-04-15T12:20:29.821Z,13.65
2023-04-15T12:21:31.686Z,13.63
2023-04-15T12:22:33.473Z,13.62
2023-04-15T12:23:35.292Z,13.65
2023-04-15T12:24:37.135Z,13.68
2023-04-15T12:25:38.953Z,13.70
2023-04-15T12:26:40.878Z,13.70
2023-04-15T12:27:42.693Z,13.73
2023-04-15T12:28:44.504Z,13.73
2023-04-15T12:29:46.322Z,13.75
2023-04-15T12:30:48.121Z,13.75
2023-04-15T12:31:49.952Z,13.77
2023-04-15T12:32:51.775Z,13.76
2023-04-15T12:33:53.556Z,13.75
2023-04-15T12:34:55.418Z,13.73
2023-04-15T12:35:57.272Z,13.73
2023-04-15T12:36:59.098Z,13.73
2023-04-15T12:38:00.926Z,13.77
2023-04-15T12:39:02.755Z,13.78
2023-04-15T12:40:04.594Z,13.81
2023-04-15T12:41:06.435Z,13.80
2023-04-15T12:42:08.233Z,13.80
2023-04-15T12:43:10.068Z,13.81
2023-04-15T12:44:13.696Z,13.79
2023-04-15T12:45:15.550Z,13.77
2023-04-15T12:46:17.495Z,13.76
2023-04-15T12:47:19.352Z,13.75
2023-04-15T12:48:21.150Z,13.74
2023-04-15T12:49:23.054Z,13.73
2023-04-15T12:50:24.888Z,13.73
2023-04-15T12:51:26.717Z,13.77
2023-04-15T12:52:28.574Z,13.81
2023-04-15T12:53:30.386Z,13.81
2023-04-15T12:54:32.199Z,13.81
2023-04-15T12:55:34.036Z,13.82
2023-04-15T12:56:35.837Z,13.84
2023-04-15T12:57:37.707Z,13.79
2023-04-15T12:58:39.533Z,13.80
2023-04-15T12:59:41.339Z,13.79
2023-04-15T13:00:43.185Z,13.79
2023-04-15T13:01:45.029Z,13.78
2023-04-15T13:02:47.040Z,13.80
2023-04-15T13:03:48.998Z,13.83
2023-04-15T13:04:50.917Z,13.83
2023-04-15T13:05:52.839Z,13.83
2023-04-15T13:06:54.744Z,13.86
2023-04-15T13:07:56.572Z,13.87
2023-04-15T13:08:59.029Z,13.88
2023-04-15T13:10:01.025Z,13.87
2023-04-15T13:11:02.862Z,13.90
2023-04-15T13:12:04.671Z,13.89
2023-04-15T13:13:06.477Z,13.89
2023-04-15T13:14:08.365Z,13.87
2023-04-15T13:15:10.069Z,13.86
2023-04-15T13:16:12.489Z,13.86